createdAt,value
2023-11-21T00:00:18.458Z,100285.50
2023-11-21T00:03:08.181Z,100286.91
2023-11-21T00:05:36.984Z,100291.53
2023-11-21T00:08:07.728Z,100292.00
2023-11-21T00:10:36.683Z,100287.83
2023-11-21T00:13:05.089Z,100290.91
2023-11-21T00:15:33.391Z,100296.25
2023-11-21T00:18:01.758Z,100298.80
2023-11-21T00:20:30.050Z,100298.98
2023-11-21T00:22:58.557Z,100304.37
2023-11-21T00:25:29.934Z,100302.48
2023-11-21T00:27:58.464Z,100304.04
2023-11-21T00:30:27.021Z,100304.55
2023-11-21T00:32:56.289Z,100305.40
2023-11-21T00:35:24.609Z,100306.59
2023-11-21T00:37:54.699Z,100305.21
2023-11-21T00:40:23.820Z,100312.23
2023-11-21T00:42:54.123Z,100311.95
2023-11-21T00:45:22.711Z,100316.30
2023-11-21T00:47:51.442Z,100321.66
2023-11-21T00:50:21.437Z,100323.52
2023-11-21T00:52:50.020Z,100327.65
2023-11-21T00:55:19.535Z,100331.10
2023-11-21T00:57:47.954Z,100330.14
2023-11-21T01:00:18.633Z,100335.65
2023-11-21T01:02:47.139Z,100333.70
2023-11-21T01:05:16.188Z,100334.40
2023-11-21T01:07:44.829Z,100335.81
2023-11-21T01:10:14.086Z,100338.08
2023-11-21T01:12:44.443Z,100340.81
2023-11-21T01:15:15.764Z,100346.38
2023-11-21T01:17:44.329Z,100352.61
2023-11-21T01:20:15.336Z,100350.67
2023-11-21T01:22:47.084Z,100349.81
2023-11-21T01:25:15.991Z,100357.20
2023-11-21T01:27:45.640Z,100359.50
2023-11-21T01:30:14.589Z,100367.32
2023-11-21T01:32:43.575Z,100370.80
2023-11-21T01:35:12.168Z,100373.39
2023-11-21T01:37:41.076Z,100374.14
2023-11-21T01:40:16.134Z,100375.49
2023-11-21T01:42:45.516Z,100370.90
2023-11-21T01:45:14.816Z,100368.98
2023-11-21T01:47:57.967Z,100369.36
2023-11-21T01:50:29.841Z,100376.55
2023-11-21T01:53:00.068Z,100382.24
2023-11-21T01:55:29.418Z,100386.38
2023-11-21T01:58:03.994Z,100389.65
2023-11-21T02:00:32.818Z,100390.02
2023-11-21T02:03:01.562Z,100388.77
2023-11-21T02:05:33.597Z,100388.25
2023-11-21T02:08:02.337Z,100387.88
2023-11-21T02:10:33.655Z,100390.17
2023-11-21T02:13:04.691Z,100391.73
2023-11-21T02:15:33.493Z,100398.19
2023-11-21T02:18:02.977Z,100395.61
2023-11-21T02:20:31.604Z,100398.36
2023-11-21T02:23:01.094Z,100396.09
2023-11-21T02:25:33.813Z,100392.77
2023-11-21T02:28:05.197Z,100394.34
2023-11-21T02:30:35.274Z,100395.55
2023-11-21T02:33:04.034Z,100402.33
2023-11-21T02:35:33.571Z,100406.15
2023-11-21T02:38:04.313Z,100405.82
2023-11-21T02:40:33.122Z,100410.32
2023-11-21T02:43:02.843Z,100413.46
2023-11-21T02:45:31.954Z,100414.16
2023-11-21T02:48:00.748Z,100413.98
2023-11-21T02:50:29.360Z,100420.41
2023-11-21T02:53:03.116Z,100421.10
2023-11-21T02:55:32.893Z,100425.30
2023-11-21T02:58:01.662Z,100430.31
2023-11-21T03:00:30.206Z,100432.05
2023-11-21T03:02:59.892Z,100431.86
2023-11-21T03:05:31.053Z,100434.64
2023-11-21T03:07:59.333Z,100441.21
2023-11-21T03:10:29.361Z,100440.88
2023-11-21T03:13:01.507Z,100439.48
2023-11-21T03:15:30.018Z,100443.18
2023-11-21T03:17:58.837Z,100453.42
2023-11-21T03:20:27.492Z,100450.02
2023-11-21T03:22:56.125Z,100456.61
2023-11-21T03:25:26.215Z,100459.25
2023-11-21T03:27:55.091Z,100459.08
2023-11-21T03:30:23.868Z,100462.02
2023-11-21T03:32:52.335Z,100463.75
2023-11-21T03:35:23.620Z,100465.66
2023-11-21T03:37:52.306Z,100468.26
2023-11-21T03:40:22.748Z,100467.05
2023-11-21T03:42:52.734Z,100470.15
2023-11-21T03:45:21.176Z,100466.16
2023-11-21T03:47:49.802Z,100471.33
2023-11-21T03:50:18.378Z,100466.45
2023-11-21T03:52:46.978Z,100465.23
2023-11-21T03:55:16.479Z,100461.92
2023-11-21T03:57:44.943Z,100459.15
2023-11-21T04:36:34.729Z,100500.74
2023-11-21T04:39:03.660Z,100503.48
2023-11-21T04:41:33.255Z,100502.73
2023-11-21T04:44:02.719Z,100505.57
2023-11-21T04:46:30.916Z,100505.32
2023-11-21T04:48:59.775Z,100508.24
2023-11-21T04:51:28.815Z,100514.64
2023-11-21T04:53:57.007Z,100520.30
2023-11-21T04:56:26.010Z,100525.79
2023-11-21T04:58:55.387Z,100523.13
2023-11-21T05:01:26.300Z,100530.42
2023-11-21T05:03:54.911Z,100533.56
2023-11-21T05:06:23.458Z,100535.66
2023-11-21T05:08:51.691Z,100541.05
2023-11-21T05:11:29.680Z,100543.49
2023-11-21T05:14:00.352Z,100545.61
2023-11-21T05:16:31.770Z,100545.98
2023-11-21T05:19:02.426Z,100544.98
2023-11-21T05:21:35.357Z,100546.38
2023-11-21T05:24:06.674Z,100547.27
2023-11-21T05:26:36.077Z,100544.13
2023-11-21T05:29:04.143Z,100550.53
2023-11-21T05:31:32.378Z,100556.43
2023-11-21T05:34:00.505Z,100562.48
2023-11-21T05:36:29.157Z,100566.13
2023-11-21T05:38:57.440Z,100566.80
2023-11-21T05:41:30.419Z,100569.42
2023-11-21T05:43:58.618Z,100582.08
2023-11-21T05:46:27.509Z,100588.11
2023-11-21T05:48:56.268Z,100588.83
2023-11-21T05:51:26.236Z,100585.72
2023-11-21T05:53:54.523Z,100587.61
2023-11-21T05:56:22.995Z,100588.63
2023-11-21T05:58:53.020Z,100592.30
2023-11-21T06:01:22.205Z,100595.08
2023-11-21T06:03:50.862Z,100597.30
2023-11-21T06:06:20.784Z,100603.16
2023-11-21T06:08:49.927Z,100606.82
2023-11-21T06:11:18.233Z,100613.58
2023-11-21T06:13:46.716Z,100616.69
2023-11-21T06:16:20.982Z,100618.06
2023-11-21T06:22:16.687Z,100632.85
2023-11-21T06:24:44.901Z,100641.48
2023-11-21T06:27:13.420Z,100650.16
2023-11-21T06:29:45.795Z,100655.70
2023-11-21T06:32:15.695Z,100659.69
2023-11-21T06:34:44.712Z,100662.46
2023-11-21T06:37:14.353Z,100665.77
2023-11-21T06:39:42.777Z,100666.98
2023-11-21T06:42:10.808Z,100674.11
2023-11-21T06:44:39.167Z,100676.87
2023-11-21T06:47:07.647Z,100679.13
2023-11-21T06:49:36.209Z,100682.25
2023-11-21T06:52:07.190Z,100681.04
2023-11-21T06:54:35.904Z,100686.41
2023-11-21T06:57:04.461Z,100692.80
2023-11-21T06:59:33.130Z,100697.14
2023-11-21T07:02:01.490Z,100699.38
2023-11-21T07:04:30.234Z,100703.38
2023-11-21T07:06:58.378Z,100712.89
2023-11-21T07:09:27.172Z,100715.98
2023-11-21T07:11:56.153Z,100717.21
2023-11-21T07:14:24.578Z,100718.42
2023-11-21T07:16:54.120Z,100720.67
2023-11-21T07:19:23.187Z,100724.82
2023-11-21T07:21:54.226Z,100723.26
2023-11-21T07:24:23.887Z,100727.92
2023-11-21T07:26:58.213Z,100733.13
2023-11-21T07:29:31.211Z,100736.95
2023-11-21T07:31:59.837Z,100741.45
2023-11-21T07:34:28.132Z,100744.75
2023-11-21T07:36:56.390Z,100745.09
2023-11-21T07:39:24.556Z,100747.02
2023-11-21T07:41:52.753Z,100751.70
2023-11-21T07:44:34.845Z,100755.15
2023-11-21T07:47:03.249Z,100752.55
2023-11-21T07:49:32.192Z,100751.00
2023-11-21T07:52:00.518Z,100746.67
2023-11-21T07:54:30.526Z,100751.00
2023-11-21T07:56:58.861Z,100751.16
2023-11-21T07:59:29.589Z,100752.03
2023-11-21T08:01:58.340Z,100755.31
2023-11-21T08:04:26.992Z,100755.33
2023-11-21T08:06:55.662Z,100756.36
2023-11-21T08:09:25.171Z,100754.63
2023-11-21T08:11:55.447Z,100759.46
2023-11-21T08:14:26.816Z,100765.88
2023-11-21T08:16:58.912Z,100765.16
2023-11-21T08:19:27.495Z,100764.47
2023-11-21T08:21:55.991Z,100766.52
2023-11-21T08:24:24.466Z,100772.08
2023-11-21T08:26:53.671Z,100768.08
2023-11-21T08:29:21.946Z,100762.86
2023-11-21T08:31:50.309Z,100765.95
2023-11-21T08:34:18.660Z,100768.56
2023-11-21T08:36:47.115Z,100769.27
2023-11-21T08:39:20.265Z,100768.94
2023-11-21T08:41:50.284Z,100767.05
2023-11-21T08:44:19.502Z,100768.95
2023-11-21T08:46:48.213Z,100773.60
2023-11-21T08:49:17.256Z,100768.92
2023-11-21T08:51:47.489Z,100769.59
2023-11-21T08:54:15.655Z,100771.48
2023-11-21T08:56:45.576Z,100773.38
2023-11-21T08:59:16.218Z,100774.25
2023-11-21T09:01:44.537Z,100780.66
2023-11-21T09:04:14.111Z,100781.89
2023-11-21T09:06:42.383Z,100786.22
2023-11-21T09:09:14.159Z,100786.58
2023-11-21T09:11:42.489Z,100789.17
2023-11-21T09:14:11.590Z,100793.15
2023-11-21T09:16:41.455Z,100796.79
2023-11-21T09:19:10.000Z,100796.30
2023-11-21T09:21:38.216Z,100797.50
2023-11-21T09:24:06.976Z,100799.19
2023-11-21T09:26:36.151Z,100804.56
2023-11-21T09:29:04.698Z,100806.11
2023-11-21T09:31:35.256Z,100808.54
2023-11-21T09:34:08.332Z,100816.23
2023-11-21T09:36:36.753Z,100817.64
2023-11-21T09:39:08.394Z,100820.23
2023-11-21T09:41:47.083Z,100821.27
2023-11-21T09:44:28.924Z,100833.94
2023-11-21T09:47:03.446Z,100834.10
2023-11-21T09:49:37.424Z,100830.11
2023-11-21T09:52:09.316Z,100829.61
2023-11-21T09:54:41.173Z,100832.20
2023-11-21T09:57:10.559Z,100836.89
2023-11-21T09:59:39.584Z,100833.78
2023-11-21T10:02:28.850Z,100834.29
2023-11-21T10:04:58.094Z,100831.53
2023-11-21T10:07:26.604Z,100833.43
2023-11-21T10:09:57.106Z,100833.25
2023-11-21T10:12:27.893Z,100829.61
2023-11-21T10:15:00.167Z,100829.44
2023-11-21T10:17:33.213Z,100833.42
2023-11-21T10:20:13.028Z,100838.27
2023-11-21T10:22:43.636Z,100839.30
2023-11-21T10:25:12.316Z,100841.91
2023-11-21T10:27:40.703Z,100846.41
2023-11-21T10:30:14.563Z,100846.23
2023-11-21T10:32:46.215Z,100848.33
2023-11-21T10:35:14.759Z,100854.74
2023-11-21T10:37:45.426Z,100856.46
2023-11-21T10:40:14.223Z,100858.55
2023-11-21T10:42:43.250Z,100863.42
2023-11-21T10:45:15.409Z,100864.11
2023-11-21T10:47:45.538Z,100862.21
2023-11-21T10:50:14.018Z,100866.89
2023-11-21T10:52:44.979Z,100867.75
2023-11-21T10:55:24.230Z,100863.94
2023-11-21T10:57:59.175Z,100863.23
2023-11-21T11:00:51.950Z,100870.70
2023-11-21T11:03:20.483Z,100868.11
2023-11-21T11:06:11.786Z,100869.66
2023-11-21T11:08:41.025Z,100869.84
2023-11-21T11:11:11.974Z,100871.38
2023-11-21T11:13:48.849Z,100877.27
2023-11-21T11:16:19.048Z,100877.11
2023-11-21T11:18:48.901Z,100881.63
2023-11-21T11:21:35.318Z,100886.48
2023-11-21T11:24:48.893Z,100890.80
2023-11-21T11:27:31.805Z,100894.09
2023-11-21T11:30:23.459Z,100895.66
2023-11-21T11:33:27.615Z,100898.42
2023-11-21T11:36:23.902Z,100902.05
